sensor_id;sensor_type;location;lat;lon;timestamp;P1;durP1;ratioP1;P2;durP2;ratioP2
15159;SDS011;7680;48.800;9.680;2022-07-25T00:01:00;15.90;;;14.68;;
15159;SDS011;7680;48.800;9.680;2022-07-25T00:03:37;14.80;;;13.68;;
15159;SDS011;7680;48.800;9.680;2022-07-25T00:06:11;14.82;;;13.45;;
15159;SDS011;7680;48.800;9.680;2022-07-25T00:08:48;14.23;;;13.13;;
15159;SDS011;7680;48.800;9.680;2022-07-25T00:11:21;14.90;;;13.75;;
15159;SDS011;7680;48.800;9.680;2022-07-25T00:13:54;14.32;;;13.15;;
15159;SDS011;7680;48.800;9.680;2022-07-25T00:16:27;15.35;;;14.05;;
15159;SDS011;7680;48.800;9.680;2022-07-25T00:19:00;15.50;;;14.27;;
15159;SDS011;7680;48.800;9.680;2022-07-25T00:21:35;14.10;;;13.00;;
15159;SDS011;7680;48.800;9.680;2022-07-25T00:24:08;16.10;;;14.90;;
15159;SDS011;7680;48.800;9.680;2022-07-25T00:26:41;14.80;;;13.70;;
15159;SDS011;7680;48.800;9.680;2022-07-25T00:29:15;14.57;;;13.50;;
15159;SDS011;7680;48.800;9.680;2022-07-25T00:31:48;14.45;;;13.35;;
15159;SDS011;7680;48.800;9.680;2022-07-25T00:34:21;14.98;;;13.65;;
15159;SDS011;7680;48.800;9.680;2022-07-25T00:36:56;14.63;;;13.35;;
15159;SDS011;7680;48.800;9.680;2022-07-25T00:39:29;14.75;;;13.60;;
15159;SDS011;7680;48.800;9.680;2022-07-25T00:42:06;14.05;;;12.85;;
15159;SDS011;7680;48.800;9.680;2022-07-25T00:44:39;14.07;;;13.07;;
15159;SDS011;7680;48.800;9.680;2022-07-25T00:47:12;13.98;;;12.88;;
15159;SDS011;7680;48.800;9.680;2022-07-25T00:49:45;13.77;;;12.68;;
15159;SDS011;7680;48.800;9.680;2022-07-25T00:52:20;13.90;;;12.90;;
15159;SDS011;7680;48.800;9.680;2022-07-25T00:54:54;13.13;;;12.15;;
15159;SDS011;7680;48.800;9.680;2022-07-25T00:57:28;13.68;;;12.57;;
15159;SDS011;7680;48.800;9.680;2022-07-25T01:00:02;13.60;;;12.48;;
15159;SDS011;7680;48.800;9.680;2022-07-25T01:02:37;14.20;;;13.20;;
15159;SDS011;7680;48.800;9.680;2022-07-25T01:05:11;13.10;;;12.13;;
15159;SDS011;7680;48.800;9.680;2022-07-25T01:07:45;14.27;;;13.10;;
15159;SDS011;7680;48.800;9.680;2022-07-25T01:10:19;13.52;;;12.52;;
15159;SDS011;7680;48.800;9.680;2022-07-25T01:12:52;14.27;;;13.18;;
15159;SDS011;7680;48.800;9.680;2022-07-25T01:15:26;14.27;;;13.18;;
15159;SDS011;7680;48.800;9.680;2022-07-25T01:18:00;14.55;;;13.40;;
15159;SDS011;7680;48.800;9.680;2022-07-25T01:20:35;13.98;;;12.93;;
15159;SDS011;7680;48.800;9.680;2022-07-25T01:23:08;13.65;;;12.65;;
15159;SDS011;7680;48.800;9.680;2022-07-25T01:25:41;13.88;;;12.75;;
15159;SDS011;7680;48.800;9.680;2022-07-25T01:28:14;14.05;;;13.02;;
15159;SDS011;7680;48.800;9.680;2022-07-25T01:30:48;13.50;;;12.50;;
15159;SDS011;7680;48.800;9.680;2022-07-25T01:33:21;14.35;;;13.25;;
15159;SDS011;7680;48.800;9.680;2022-07-25T01:35:56;14.50;;;13.35;;
15159;SDS011;7680;48.800;9.680;2022-07-25T01:38:29;14.68;;;13.48;;
15159;SDS011;7680;48.800;9.680;2022-07-25T01:41:02;13.65;;;12.65;;
15159;SDS011;7680;48.800;9.680;2022-07-25T01:43:35;13.48;;;12.57;;
15159;SDS011;7680;48.800;9.680;2022-07-25T01:46:09;14.20;;;13.13;;
15159;SDS011;7680;48.800;9.680;2022-07-25T01:48:42;13.32;;;12.32;;
15159;SDS011;7680;48.800;9.680;2022-07-25T01:51:16;13.23;;;12.25;;
15159;SDS011;7680;48.800;9.680;2022-07-25T01:53:50;13.40;;;12.38;;
15159;SDS011;7680;48.800;9.680;2022-07-25T01:56:23;13.57;;;12.48;;
15159;SDS011;7680;48.800;9.680;2022-07-25T01:58:58;13.65;;;12.65;;
15159;SDS011;7680;48.800;9.680;2022-07-25T02:01:31;13.95;;;12.85;;
15159;SDS011;7680;48.800;9.680;2022-07-25T02:04:05;14.13;;;13.02;;
15159;SDS011;7680;48.800;9.680;2022-07-25T02:06:40;14.13;;;13.07;;
15159;SDS011;7680;48.800;9.680;2022-07-25T02:09:13;13.13;;;12.07;;
15159;SDS011;7680;48.800;9.680;2022-07-25T02:11:46;14.20;;;13.10;;
15159;SDS011;7680;48.800;9.680;2022-07-25T02:14:19;14.07;;;13.05;;
15159;SDS011;7680;48.800;9.680;2022-07-25T02:16:53;13.98;;;12.88;;
15159;SDS011;7680;48.800;9.680;2022-07-25T02:19:26;13.55;;;12.65;;
15159;SDS011;7680;48.800;9.680;2022-07-25T02:22:00;14.00;;;12.82;;
15159;SDS011;7680;48.800;9.680;2022-07-25T02:24:34;13.88;;;12.80;;
15159;SDS011;7680;48.800;9.680;2022-07-25T02:27:07;14.27;;;13.20;;
15159;SDS011;7680;48.800;9.680;2022-07-25T02:29:40;13.77;;;12.75;;
15159;SDS011;7680;48.800;9.680;2022-07-25T02:32:13;14.00;;;12.90;;
15159;SDS011;7680;48.800;9.680;2022-07-25T02:34:46;13.73;;;12.68;;
15159;SDS011;7680;48.800;9.680;2022-07-25T02:37:21;13.57;;;12.55;;
15159;SDS011;7680;48.800;9.680;2022-07-25T02:39:54;13.05;;;12.15;;
15159;SDS011;7680;48.800;9.680;2022-07-25T02:42:27;14.50;;;13.30;;
15159;SDS011;7680;48.800;9.680;2022-07-25T02:45:00;14.60;;;13.30;;
15159;SDS011;7680;48.800;9.680;2022-07-25T02:47:34;14.20;;;13.00;;
15159;SDS011;7680;48.800;9.680;2022-07-25T02:50:07;13.82;;;12.73;;
15159;SDS011;7680;48.800;9.680;2022-07-25T02:52:46;15.15;;;13.85;;
15159;SDS011;7680;48.800;9.680;2022-07-25T02:55:19;14.02;;;13.02;;
15159;SDS011;7680;48.800;9.680;2022-07-25T02:57:53;14.55;;;13.45;;
15159;SDS011;7680;48.800;9.680;2022-07-25T03:00:26;13.75;;;12.57;;
15159;SDS011;7680;48.800;9.680;2022-07-25T03:03:00;14.55;;;13.55;;
15159;SDS011;7680;48.800;9.680;2022-07-25T03:05:34;14.43;;;13.40;;
15159;SDS011;7680;48.800;9.680;2022-07-25T03:08:08;14.35;;;13.25;;
15159;SDS011;7680;48.800;9.680;2022-07-25T03:10:42;14.05;;;13.05;;
15159;SDS011;7680;48.800;9.680;2022-07-25T03:13:15;14.30;;;13.23;;
15159;SDS011;7680;48.800;9.680;2022-07-25T03:15:49;14.23;;;13.15;;
15159;SDS011;7680;48.800;9.680;2022-07-25T03:18:23;13.25;;;12.30;;
15159;SDS011;7680;48.800;9.680;2022-07-25T03:20:56;14.45;;;13.32;;
15159;SDS011;7680;48.800;9.680;2022-07-25T03:23:30;15.80;;;14.50;;
15159;SDS011;7680;48.800;9.680;2022-07-25T03:26:04;14.88;;;13.77;;
15159;SDS011;7680;48.800;9.680;2022-07-25T03:28:37;14.75;;;13.43;;
15159;SDS011;7680;48.800;9.680;2022-07-25T03:31:10;14.93;;;13.73;;
15159;SDS011;7680;48.800;9.680;2022-07-25T03:33:43;13.68;;;12.68;;
15159;SDS011;7680;48.800;9.680;2022-07-25T03:36:17;15.43;;;14.23;;
15159;SDS011;7680;48.800;9.680;2022-07-25T03:38:51;15.50;;;14.35;;
15159;SDS011;7680;48.800;9.680;2022-07-25T03:41:26;15.18;;;13.88;;
15159;SDS011;7680;48.800;9.680;2022-07-25T03:43:59;14.68;;;13.57;;
15159;SDS011;7680;48.800;9.680;2022-07-25T03:46:33;14.63;;;13.43;;
15159;SDS011;7680;48.800;9.680;2022-07-25T03:49:06;15.02;;;13.82;;
15159;SDS011;7680;48.800;9.680;2022-07-25T03:51:39;15.52;;;14.30;;
15159;SDS011;7680;48.800;9.680;2022-07-25T03:54:14;14.52;;;13.40;;
15159;SDS011;7680;48.800;9.680;2022-07-25T03:56:49;14.50;;;13.45;;
15159;SDS011;7680;48.800;9.680;2022-07-25T03:59:23;15.38;;;14.27;;
15159;SDS011;7680;48.800;9.680;2022-07-25T04:01:56;13.60;;;12.63;;
15159;SDS011;7680;48.800;9.680;2022-07-25T04:04:29;15.23;;;13.95;;
15159;SDS011;7680;48.800;9.680;2022-07-25T04:07:02;15.57;;;14.27;;
15159;SDS011;7680;48.800;9.680;2022-07-25T04:09:37;15.73;;;14.35;;
15159;SDS011;7680;48.800;9.680;2022-07-25T04:12:10;15.60;;;14.30;;
15159;SDS011;7680;48.800;9.680;2022-07-25T04:14:43;14.55;;;13.50;;
15159;SDS011;7680;48.800;9.680;2022-07-25T04:17:16;14.18;;;13.07;;
15159;SDS011;7680;48.800;9.680;2022-07-25T04:19:51;15.52;;;14.32;;
15159;SDS011;7680;48.800;9.680;2022-07-25T04:22:25;15.52;;;14.32;;
15159;SDS011;7680;48.800;9.680;2022-07-25T04:24:59;15.35;;;14.10;;
15159;SDS011;7680;48.800;9.680;2022-07-25T04:27:32;14.18;;;13.07;;
15159;SDS011;7680;48.800;9.680;2022-07-25T04:30:06;15.52;;;14.38;;
15159;SDS011;7680;48.800;9.680;2022-07-25T04:32:41;15.70;;;14.45;;
15159;SDS011;7680;48.800;9.680;2022-07-25T04:35:14;15.73;;;14.55;;
15159;SDS011;7680;48.800;9.680;2022-07-25T04:37:47;14.50;;;13.40;;
15159;SDS011;7680;48.800;9.680;2022-07-25T04:40:22;15.40;;;14.20;;
15159;SDS011;7680;48.800;9.680;2022-07-25T04:42:55;14.30;;;13.20;;
15159;SDS011;7680;48.800;9.680;2022-07-25T04:45:28;14.10;;;13.00;;
15159;SDS011;7680;48.800;9.680;2022-07-25T04:48:01;14.55;;;13.50;;
15159;SDS011;7680;48.800;9.680;2022-07-25T04:50:35;15.00;;;13.82;;
15159;SDS011;7680;48.800;9.680;2022-07-25T04:53:09;14.82;;;13.68;;
15159;SDS011;7680;48.800;9.680;2022-07-25T04:55:43;14.70;;;13.70;;
15159;SDS011;7680;48.800;9.680;2022-07-25T04:58:17;13.85;;;12.85;;
15159;SDS011;7680;48.800;9.680;2022-07-25T05:00:50;13.68;;;12.57;;
15159;SDS011;7680;48.800;9.680;2022-07-25T05:03:23;15.63;;;14.32;;
15159;SDS011;7680;48.800;9.680;2022-07-25T05:05:57;14.85;;;13.65;;
15159;SDS011;7680;48.800;9.680;2022-07-25T05:08:30;15.88;;;14.63;;
15159;SDS011;7680;48.800;9.680;2022-07-25T05:11:04;15.85;;;14.65;;
15159;SDS011;7680;48.800;9.680;2022-07-25T05:13:38;15.13;;;13.93;;
15159;SDS011;7680;48.800;9.680;2022-07-25T05:16:11;15.65;;;14.35;;
15159;SDS011;7680;48.800;9.680;2022-07-25T05:18:44;15.30;;;14.10;;
15159;SDS011;7680;48.800;9.680;2022-07-25T05:21:17;15.15;;;13.98;;
15159;SDS011;7680;48.800;9.680;2022-07-25T05:23:50;15.65;;;14.43;;
15159;SDS011;7680;48.800;9.680;2022-07-25T05:26:25;14.27;;;13.07;;
15159;SDS011;7680;48.800;9.680;2022-07-25T05:28:58;14.90;;;13.82;;
15159;SDS011;7680;48.800;9.680;2022-07-25T05:31:31;14.63;;;13.43;;
15159;SDS011;7680;48.800;9.680;2022-07-25T05:34:04;14.65;;;13.55;;
15159;SDS011;7680;48.800;9.680;2022-07-25T05:36:38;14.73;;;13.50;;
15159;SDS011;7680;48.800;9.680;2022-07-25T05:39:17;13.98;;;12.88;;
15159;SDS011;7680;48.800;9.680;2022-07-25T05:41:51;14.02;;;13.02;;
15159;SDS011;7680;48.800;9.680;2022-07-25T05:44:24;13.77;;;12.77;;
15159;SDS011;7680;48.800;9.680;2022-07-25T05:46:58;13.25;;;12.25;;
15159;SDS011;7680;48.800;9.680;2022-07-25T05:49:31;13.60;;;12.50;;
15159;SDS011;7680;48.800;9.680;2022-07-25T05:52:04;13.05;;;11.95;;
15159;SDS011;7680;48.800;9.680;2022-07-25T05:54:43;12.90;;;12.00;;
15159;SDS011;7680;48.800;9.680;2022-07-25T05:57:17;12.57;;;11.57;;
15159;SDS011;7680;48.800;9.680;2022-07-25T05:59:51;12.75;;;11.85;;
15159;SDS011;7680;48.800;9.680;2022-07-25T06:02:24;13.00;;;12.00;;
15159;SDS011;7680;48.800;9.680;2022-07-25T06:04:57;12.10;;;11.30;;
15159;SDS011;7680;48.800;9.680;2022-07-25T06:07:30;12.60;;;11.50;;
15159;SDS011;7680;48.800;9.680;2022-07-25T06:10:04;12.25;;;11.25;;
15159;SDS011;7680;48.800;9.680;2022-07-25T06:12:39;12.68;;;11.68;;
15159;SDS011;7680;48.800;9.680;2022-07-25T06:15:13;12.90;;;11.98;;
15159;SDS011;7680;48.800;9.680;2022-07-25T06:17:56;12.82;;;11.93;;
15159;SDS011;7680;48.800;9.680;2022-07-25T06:20:29;12.68;;;11.50;;
15159;SDS011;7680;48.800;9.680;2022-07-25T06:23:03;12.10;;;11.18;;
15159;SDS011;7680;48.800;9.680;2022-07-25T06:25:36;12.60;;;11.60;;
15159;SDS011;7680;48.800;9.680;2022-07-25T06:28:10;12.10;;;11.25;;
15159;SDS011;7680;48.800;9.680;2022-07-25T06:30:48;12.18;;;11.27;;
15159;SDS011;7680;48.800;9.680;2022-07-25T06:33:21;12.48;;;11.48;;
15159;SDS011;7680;48.800;9.680;2022-07-25T06:35:54;11.57;;;10.77;;
15159;SDS011;7680;48.800;9.680;2022-07-25T06:38:27;12.98;;;11.93;;
15159;SDS011;7680;48.800;9.680;2022-07-25T06:41:00;12.32;;;11.43;;
15159;SDS011;7680;48.800;9.680;2022-07-25T06:43:35;12.63;;;11.55;;
15159;SDS011;7680;48.800;9.680;2022-07-25T06:46:08;12.48;;;11.63;;
15159;SDS011;7680;48.800;9.680;2022-07-25T06:48:42;11.73;;;10.93;;
15159;SDS011;7680;48.800;9.680;2022-07-25T06:51:15;11.88;;;11.05;;
15159;SDS011;7680;48.800;9.680;2022-07-25T06:53:48;11.65;;;10.95;;
15159;SDS011;7680;48.800;9.680;2022-07-25T06:56:21;12.35;;;11.25;;
15159;SDS011;7680;48.800;9.680;2022-07-25T06:58:55;11.25;;;10.45;;
15159;SDS011;7680;48.800;9.680;2022-07-25T07:01:29;11.85;;;10.80;;
15159;SDS011;7680;48.800;9.680;2022-07-25T07:04:02;11.93;;;11.05;;
15159;SDS011;7680;48.800;9.680;2022-07-25T07:06:36;10.88;;;10.07;;
15159;SDS011;7680;48.800;9.680;2022-07-25T07:09:10;11.13;;;10.43;;
15159;SDS011;7680;48.800;9.680;2022-07-25T07:11:43;11.32;;;10.63;;
15159;SDS011;7680;48.800;9.680;2022-07-25T07:14:17;11.23;;;10.50;;
15159;SDS011;7680;48.800;9.680;2022-07-25T07:16:50;11.45;;;10.75;;
15159;SDS011;7680;48.800;9.680;2022-07-25T07:19:23;12.02;;;11.13;;
15159;SDS011;7680;48.800;9.680;2022-07-25T07:21:57;11.40;;;10.63;;
15159;SDS011;7680;48.800;9.680;2022-07-25T07:24:30;11.77;;;11.05;;
15159;SDS011;7680;48.800;9.680;2022-07-25T07:27:03;11.98;;;11.07;;
15159;SDS011;7680;48.800;9.680;2022-07-25T07:29:38;11.73;;;10.82;;
15159;SDS011;7680;48.800;9.680;2022-07-25T07:32:12;12.02;;;11.23;;
15159;SDS011;7680;48.800;9.680;2022-07-25T07:34:45;11.50;;;10.70;;
15159;SDS011;7680;48.800;9.680;2022-07-25T07:37:18;11.50;;;10.70;;
15159;SDS011;7680;48.800;9.680;2022-07-25T07:39:51;11.70;;;10.80;;
15159;SDS011;7680;48.800;9.680;2022-07-25T07:42:25;11.82;;;10.93;;
15159;SDS011;7680;48.800;9.680;2022-07-25T07:44:59;11.40;;;10.60;;
15159;SDS011;7680;48.800;9.680;2022-07-25T07:47:32;11.63;;;10.82;;
15159;SDS011;7680;48.800;9.680;2022-07-25T07:50:06;11.82;;;10.93;;
15159;SDS011;7680;48.800;9.680;2022-07-25T07:52:40;11.15;;;10.45;;
15159;SDS011;7680;48.800;9.680;2022-07-25T07:55:14;11.13;;;10.32;;
15159;SDS011;7680;48.800;9.680;2022-07-25T07:58:05;11.63;;;10.82;;
15159;SDS011;7680;48.800;9.680;2022-07-25T08:00:40;10.40;;;9.80;;
15159;SDS011;7680;48.800;9.680;2022-07-25T08:03:16;12.00;;;11.13;;
15159;SDS011;7680;48.800;9.680;2022-07-25T08:05:50;11.23;;;10.43;;
15159;SDS011;7680;48.800;9.680;2022-07-25T08:08:24;11.20;;;10.38;;
15159;SDS011;7680;48.800;9.680;2022-07-25T08:11:01;11.55;;;10.65;;
15159;SDS011;7680;48.800;9.680;2022-07-25T08:13:35;10.45;;;9.85;;
15159;SDS011;7680;48.800;9.680;2022-07-25T08:16:09;10.80;;;9.90;;
15159;SDS011;7680;48.800;9.680;2022-07-25T08:18:44;11.18;;;10.27;;
15159;SDS011;7680;48.800;9.680;2022-07-25T08:21:17;11.05;;;10.35;;
15159;SDS011;7680;48.800;9.680;2022-07-25T08:23:50;9.68;;;9.05;;
15159;SDS011;7680;48.800;9.680;2022-07-25T08:26:23;11.25;;;10.35;;
15159;SDS011;7680;48.800;9.680;2022-07-25T08:28:58;10.90;;;10.20;;
15159;SDS011;7680;48.800;9.680;2022-07-25T08:31:51;10.50;;;9.80;;
15159;SDS011;7680;48.800;9.680;2022-07-25T08:34:24;11.48;;;10.68;;
15159;SDS011;7680;48.800;9.680;2022-07-25T08:36:59;10.70;;;10.00;;
15159;SDS011;7680;48.800;9.680;2022-07-25T08:39:32;10.88;;;10.18;;
15159;SDS011;7680;48.800;9.680;2022-07-25T08:42:05;10.98;;;10.20;;
15159;SDS011;7680;48.800;9.680;2022-07-25T08:44:41;11.30;;;10.40;;
15159;SDS011;7680;48.800;9.680;2022-07-25T08:47:23;10.70;;;10.00;;
15159;SDS011;7680;48.800;9.680;2022-07-25T08:49:56;10.75;;;10.05;;
15159;SDS011;7680;48.800;9.680;2022-07-25T08:52:35;10.85;;;10.10;;
15159;SDS011;7680;48.800;9.680;2022-07-25T08:55:08;11.27;;;10.48;;
15159;SDS011;7680;48.800;9.680;2022-07-25T08:57:46;11.38;;;10.57;;
15159;SDS011;7680;48.800;9.680;2022-07-25T09:00:21;11.00;;;10.30;;
15159;SDS011;7680;48.800;9.680;2022-07-25T09:03:00;11.52;;;10.73;;
15159;SDS011;7680;48.800;9.680;2022-07-25T09:05:37;10.80;;;10.00;;
15159;SDS011;7680;48.800;9.680;2022-07-25T09:08:11;11.48;;;10.68;;
15159;SDS011;7680;48.800;9.680;2022-07-25T09:10:47;10.80;;;10.10;;
15159;SDS011;7680;48.800;9.680;2022-07-25T09:13:22;10.57;;;9.95;;
15159;SDS011;7680;48.800;9.680;2022-07-25T09:15:57;10.10;;;9.30;;
15159;SDS011;7680;48.800;9.680;2022-07-25T09:18:32;10.52;;;9.82;;
15159;SDS011;7680;48.800;9.680;2022-07-25T09:21:11;10.90;;;10.20;;
15159;SDS011;7680;48.800;9.680;2022-07-25T09:23:45;10.95;;;10.25;;
15159;SDS011;7680;48.800;9.680;2022-07-25T09:26:18;11.38;;;10.50;;
15159;SDS011;7680;48.800;9.680;2022-07-25T09:28:51;10.88;;;10.10;;
15159;SDS011;7680;48.800;9.680;2022-07-25T09:31:30;10.63;;;9.82;;
15159;SDS011;7680;48.800;9.680;2022-07-25T09:34:06;10.65;;;9.90;;
15159;SDS011;7680;48.800;9.680;2022-07-25T09:36:49;10.20;;;9.50;;
15159;SDS011;7680;48.800;9.680;2022-07-25T09:39:31;10.18;;;9.38;;
15159;SDS011;7680;48.800;9.680;2022-07-25T09:42:18;10.20;;;9.50;;
15159;SDS011;7680;48.800;9.680;2022-07-25T09:44:57;9.25;;;8.63;;
15159;SDS011;7680;48.800;9.680;2022-07-25T09:47:35;9.65;;;8.95;;
15159;SDS011;7680;48.800;9.680;2022-07-25T09:50:11;9.52;;;8.82;;
15159;SDS011;7680;48.800;9.680;2022-07-25T09:52:45;9.52;;;8.82;;
15159;SDS011;7680;48.800;9.680;2022-07-25T09:55:18;9.75;;;9.05;;
15159;SDS011;7680;48.800;9.680;2022-07-25T09:57:52;10.07;;;9.38;;
15159;SDS011;7680;48.800;9.680;2022-07-25T10:00:26;9.68;;;9.07;;
15159;SDS011;7680;48.800;9.680;2022-07-25T10:03:04;8.73;;;8.23;;
15159;SDS011;7680;48.800;9.680;2022-07-25T10:05:53;9.40;;;8.60;;
15159;SDS011;7680;48.800;9.680;2022-07-25T10:08:40;8.73;;;8.20;;
15159;SDS011;7680;48.800;9.680;2022-07-25T10:11:17;9.20;;;8.60;;
15159;SDS011;7680;48.800;9.680;2022-07-25T10:13:52;9.35;;;8.75;;
15159;SDS011;7680;48.800;9.680;2022-07-25T10:16:26;9.73;;;8.95;;
15159;SDS011;7680;48.800;9.680;2022-07-25T10:19:00;8.98;;;8.30;;
15159;SDS011;7680;48.800;9.680;2022-07-25T10:21:35;8.68;;;8.07;;
15159;SDS011;7680;48.800;9.680;2022-07-25T10:24:08;8.93;;;8.32;;
15159;SDS011;7680;48.800;9.680;2022-07-25T10:26:50;8.35;;;7.82;;
15159;SDS011;7680;48.800;9.680;2022-07-25T10:29:31;9.25;;;8.50;;
15159;SDS011;7680;48.800;9.680;2022-07-25T10:32:06;9.77;;;9.05;;
15159;SDS011;7680;48.800;9.680;2022-07-25T10:34:41;9.45;;;8.73;;
15159;SDS011;7680;48.800;9.680;2022-07-25T10:37:26;9.13;;;8.52;;
15159;SDS011;7680;48.800;9.680;2022-07-25T10:40:00;9.35;;;8.75;;
15159;SDS011;7680;48.800;9.680;2022-07-25T10:42:34;9.95;;;9.25;;
15159;SDS011;7680;48.800;9.680;2022-07-25T10:45:07;9.45;;;8.75;;
15159;SDS011;7680;48.800;9.680;2022-07-25T10:47:50;9.55;;;8.95;;
15159;SDS011;7680;48.800;9.680;2022-07-25T10:50:25;10.57;;;9.82;;
15159;SDS011;7680;48.800;9.680;2022-07-25T10:53:34;9.50;;;8.80;;
15159;SDS011;7680;48.800;9.680;2022-07-25T10:56:16;9.90;;;9.30;;
15159;SDS011;7680;48.800;9.680;2022-07-25T10:58:52;10.07;;;9.38;;
15159;SDS011;7680;48.800;9.680;2022-07-25T11:01:28;10.27;;;9.60;;
15159;SDS011;7680;48.800;9.680;2022-07-25T11:04:04;10.68;;;9.77;;
15159;SDS011;7680;48.800;9.680;2022-07-25T11:06:46;10.50;;;9.73;;
15159;SDS011;7680;48.800;9.680;2022-07-25T11:09:21;10.43;;;9.73;;
15159;SDS011;7680;48.800;9.680;2022-07-25T11:11:58;10.15;;;9.48;;
15159;SDS011;7680;48.800;9.680;2022-07-25T11:14:32;10.88;;;10.13;;
15159;SDS011;7680;48.800;9.680;2022-07-25T11:17:09;11.70;;;10.90;;
15159;SDS011;7680;48.800;9.680;2022-07-25T11:19:52;10.80;;;10.07;;
15159;SDS011;7680;48.800;9.680;2022-07-25T11:22:27;11.20;;;10.40;;
15159;SDS011;7680;48.800;9.680;2022-07-25T11:25:08;11.38;;;10.45;;
15159;SDS011;7680;48.800;9.680;2022-07-25T11:27:44;10.68;;;9.90;;
15159;SDS011;7680;48.800;9.680;2022-07-25T11:30:21;11.38;;;10.57;;
15159;SDS011;7680;48.800;9.680;2022-07-25T11:32:56;10.70;;;10.10;;
15159;SDS011;7680;48.800;9.680;2022-07-25T11:35:32;11.18;;;10.48;;
15159;SDS011;7680;48.800;9.680;2022-07-25T11:38:05;11.80;;;11.07;;
15159;SDS011;7680;48.800;9.680;2022-07-25T11:40:42;11.20;;;10.40;;
15159;SDS011;7680;48.800;9.680;2022-07-25T11:43:19;11.93;;;10.95;;
15159;SDS011;7680;48.800;9.680;2022-07-25T11:45:54;11.82;;;10.93;;
15159;SDS011;7680;48.800;9.680;2022-07-25T11:48:30;10.88;;;10.07;;
15159;SDS011;7680;48.800;9.680;2022-07-25T11:51:10;11.10;;;10.30;;
15159;SDS011;7680;48.800;9.680;2022-07-25T11:53:49;11.13;;;10.43;;
15159;SDS011;7680;48.800;9.680;2022-07-25T11:56:24;11.30;;;10.50;;
15159;SDS011;7680;48.800;9.680;2022-07-25T11:59:14;11.15;;;10.40;;
15159;SDS011;7680;48.800;9.680;2022-07-25T12:01:47;11.13;;;10.23;;
15159;SDS011;7680;48.800;9.680;2022-07-25T12:04:20;11.85;;;11.02;;
15159;SDS011;7680;48.800;9.680;2022-07-25T12:07:01;11.02;;;10.23;;
15159;SDS011;7680;48.800;9.680;2022-07-25T12:09:36;10.80;;;10.10;;
15159;SDS011;7680;48.800;9.680;2022-07-25T12:12:11;11.13;;;10.25;;
15159;SDS011;7680;48.800;9.680;2022-07-25T12:14:44;10.48;;;9.77;;
15159;SDS011;7680;48.800;9.680;2022-07-25T12:17:17;11.80;;;10.73;;
15159;SDS011;7680;48.800;9.680;2022-07-25T12:19:50;11.38;;;10.57;;
15159;SDS011;7680;48.800;9.680;2022-07-25T12:22:23;10.73;;;10.02;;
15159;SDS011;7680;48.800;9.680;2022-07-25T12:24:56;11.13;;;10.43;;
15159;SDS011;7680;48.800;9.680;2022-07-25T12:27:31;11.32;;;10.60;;
15159;SDS011;7680;48.800;9.680;2022-07-25T12:30:05;11.55;;;10.75;;
15159;SDS011;7680;48.800;9.680;2022-07-25T12:32:39;11.13;;;10.43;;
15159;SDS011;7680;48.800;9.680;2022-07-25T12:35:13;10.95;;;10.15;;
15159;SDS011;7680;48.800;9.680;2022-07-25T12:37:46;10.63;;;9.93;;
15159;SDS011;7680;48.800;9.680;2022-07-25T12:40:21;11.30;;;10.40;;
15159;SDS011;7680;48.800;9.680;2022-07-25T12:42:55;11.68;;;10.88;;
15159;SDS011;7680;48.800;9.680;2022-07-25T12:45:29;11.20;;;10.32;;
15159;SDS011;7680;48.800;9.680;2022-07-25T12:48:03;11.35;;;10.55;;
15159;SDS011;7680;48.800;9.680;2022-07-25T12:50:36;11.00;;;10.30;;
15159;SDS011;7680;48.800;9.680;2022-07-25T12:53:10;11.48;;;10.65;;
15159;SDS011;7680;48.800;9.680;2022-07-25T12:55:44;11.13;;;10.32;;
15159;SDS011;7680;48.800;9.680;2022-07-25T12:58:19;10.43;;;9.63;;
15159;SDS011;7680;48.800;9.680;2022-07-25T13:00:52;10.27;;;9.68;;
15159;SDS011;7680;48.800;9.680;2022-07-25T13:03:33;10.85;;;10.10;;
15159;SDS011;7680;48.800;9.680;2022-07-25T13:06:06;11.10;;;10.20;;
15159;SDS011;7680;48.800;9.680;2022-07-25T13:08:40;11.15;;;10.32;;
15159;SDS011;7680;48.800;9.680;2022-07-25T13:11:13;11.10;;;10.35;;
15159;SDS011;7680;48.800;9.680;2022-07-25T13:13:47;10.63;;;9.82;;
15159;SDS011;7680;48.800;9.680;2022-07-25T13:16:20;9.60;;;9.00;;
15159;SDS011;7680;48.800;9.680;2022-07-25T13:18:54;9.60;;;8.90;;
15159;SDS011;7680;48.800;9.680;2022-07-25T13:21:27;9.55;;;8.85;;
15159;SDS011;7680;48.800;9.680;2022-07-25T13:24:01;9.38;;;8.68;;
15159;SDS011;7680;48.800;9.680;2022-07-25T13:26:34;9.20;;;8.60;;
15159;SDS011;7680;48.800;9.680;2022-07-25T13:29:10;9.07;;;8.38;;
15159;SDS011;7680;48.800;9.680;2022-07-25T13:31:43;9.00;;;8.35;;
15159;SDS011;7680;48.800;9.680;2022-07-25T13:34:17;8.60;;;8.00;;
15159;SDS011;7680;48.800;9.680;2022-07-25T13:36:51;8.80;;;8.25;;
15159;SDS011;7680;48.800;9.680;2022-07-25T13:39:24;8.88;;;8.18;;
15159;SDS011;7680;48.800;9.680;2022-07-25T13:41:57;8.60;;;8.00;;
15159;SDS011;7680;48.800;9.680;2022-07-25T13:44:31;8.35;;;7.72;;
15159;SDS011;7680;48.800;9.680;2022-07-25T13:47:04;8.48;;;7.90;;
15159;SDS011;7680;48.800;9.680;2022-07-25T13:49:38;8.88;;;8.18;;
15159;SDS011;7680;48.800;9.680;2022-07-25T13:52:11;8.45;;;7.93;;
15159;SDS011;7680;48.800;9.680;2022-07-25T13:54:44;9.10;;;8.48;;
15159;SDS011;7680;48.800;9.680;2022-07-25T13:57:17;8.57;;;7.97;;
15159;SDS011;7680;48.800;9.680;2022-07-25T13:59:52;8.07;;;7.47;;
15159;SDS011;7680;48.800;9.680;2022-07-25T14:02:25;8.48;;;7.82;;
15159;SDS011;7680;48.800;9.680;2022-07-25T14:04:58;7.93;;;7.30;;
15159;SDS011;7680;48.800;9.680;2022-07-25T14:07:34;8.45;;;7.80;;
15159;SDS011;7680;48.800;9.680;2022-07-25T14:10:08;7.68;;;7.18;;
15159;SDS011;7680;48.800;9.680;2022-07-25T14:12:42;8.07;;;7.45;;
15159;SDS011;7680;48.800;9.680;2022-07-25T14:15:16;8.13;;;7.43;;
15159;SDS011;7680;48.800;9.680;2022-07-25T14:17:49;8.50;;;7.80;;
15159;SDS011;7680;48.800;9.680;2022-07-25T14:20:23;8.25;;;7.65;;
15159;SDS011;7680;48.800;9.680;2022-07-25T14:22:57;8.38;;;7.68;;
15159;SDS011;7680;48.800;9.680;2022-07-25T14:25:30;7.78;;;7.18;;
15159;SDS011;7680;48.800;9.680;2022-07-25T14:28:03;7.75;;;7.20;;
15159;SDS011;7680;48.800;9.680;2022-07-25T14:30:38;8.60;;;8.00;;
15159;SDS011;7680;48.800;9.680;2022-07-25T14:33:11;8.10;;;7.50;;
15159;SDS011;7680;48.800;9.680;2022-07-25T14:35:44;8.65;;;7.97;;
15159;SDS011;7680;48.800;9.680;2022-07-25T14:38:17;8.73;;;8.05;;
15159;SDS011;7680;48.800;9.680;2022-07-25T14:40:50;8.68;;;8.07;;
15159;SDS011;7680;48.800;9.680;2022-07-25T14:43:23;8.70;;;8.10;;
15159;SDS011;7680;48.800;9.680;2022-07-25T14:45:58;8.85;;;8.18;;
15159;SDS011;7680;48.800;9.680;2022-07-25T14:48:31;8.60;;;7.90;;
15159;SDS011;7680;48.800;9.680;2022-07-25T14:51:04;8.00;;;7.50;;
15159;SDS011;7680;48.800;9.680;2022-07-25T14:53:38;8.48;;;7.75;;
15159;SDS011;7680;48.800;9.680;2022-07-25T14:56:11;8.88;;;8.00;;
15159;SDS011;7680;48.800;9.680;2022-07-25T14:58:44;8.48;;;7.82;;
15159;SDS011;7680;48.800;9.680;2022-07-25T15:01:19;20.00;;;10.20;;
15159;SDS011;7680;48.800;9.680;2022-07-25T15:03:56;10.65;;;9.25;;
15159;SDS011;7680;48.800;9.680;2022-07-25T15:06:30;11.65;;;9.95;;
15159;SDS011;7680;48.800;9.680;2022-07-25T15:09:03;10.10;;;8.98;;
15159;SDS011;7680;48.800;9.680;2022-07-25T15:11:37;10.15;;;9.35;;
15159;SDS011;7680;48.800;9.680;2022-07-25T15:14:11;10.88;;;9.93;;
15159;SDS011;7680;48.800;9.680;2022-07-25T15:16:45;9.90;;;8.98;;
15159;SDS011;7680;48.800;9.680;2022-07-25T15:19:18;9.77;;;8.98;;
15159;SDS011;7680;48.800;9.680;2022-07-25T15:21:51;10.18;;;9.27;;
15159;SDS011;7680;48.800;9.680;2022-07-25T15:24:25;11.55;;;9.50;;